Time;durP1;ratioP1;P1;durP2;ratioP2;P2;SDS_P1;SDS_P2;PMS_P1;PMS_P2;Temp;Humidity;BMP_temperature;BMP_pressure;BME280_temperature;BME280_humidity;BME280_pressure;Samples;Min_cycle;Max_cycle;Signal;HPM_P1;HPM_P2
2022/11/15 00:02:24;0.00;0.00;0.62;0.00;0.00;0.62;2.90;1.83;;;24.80;25.70;;;;;;2267472;61;20363;-67
2022/11/15 00:05:27;0.00;0.00;0.62;0.00;0.00;0.62;1.90;1.50;;;24.80;25.70;;;;;;2268357;61;20878;-64
2022/11/15 00:08:31;0.00;0.00;0.62;0.00;0.00;0.62;2.03;1.73;;;24.80;25.80;;;;;;2266619;61;21277;-65
2022/11/15 00:11:35;0.00;0.00;0.62;0.00;0.00;0.62;2.03;1.60;;;24.80;25.80;;;;;;2268283;61;20355;-66
2022/11/15 00:14:38;0.00;0.00;0.62;0.00;0.00;0.62;2.00;1.50;;;24.80;25.80;;;;;;2268085;61;20378;-67
2022/11/15 00:17:43;0.00;0.00;0.62;0.00;0.00;0.62;2.90;2.33;;;24.80;25.80;;;;;;2268080;61;20355;-67
2022/11/15 00:20:46;0.00;0.00;0.62;0.00;0.00;0.62;4.90;2.57;;;24.70;25.70;;;;;;2270441;61;20372;-71
2022/11/15 00:23:50;0.00;0.00;0.62;0.00;0.00;0.62;2.67;2.27;;;24.70;25.70;;;;;;2515687;53;20784;-70
2022/11/15 00:26:53;0.00;0.00;0.62;0.00;0.00;0.62;3.20;2.53;;;24.80;25.80;;;;;;2264030;61;20448;-70
2022/11/15 00:29:57;0.00;0.00;0.62;0.00;0.00;0.62;4.17;3.10;;;24.70;25.70;;;;;;2263891;61;20360;-68
2022/11/15 00:33:04;0.00;0.00;0.62;0.00;0.00;0.62;3.43;3.13;;;24.70;25.70;;;;;;2268465;61;20404;-67
2022/11/15 00:36:10;0.00;0.00;0.62;0.00;0.00;0.62;4.30;3.90;;;24.70;25.70;;;;;;2267946;61;20439;-69
2022/11/15 00:39:14;0.00;0.00;0.62;0.00;0.00;0.62;4.27;3.53;;;24.70;25.60;;;;;;2267436;61;20398;-70
2022/11/15 00:42:17;0.00;0.00;0.62;0.00;0.00;0.62;4.33;3.93;;;24.70;25.60;;;;;;2268136;61;20810;-68
2022/11/15 00:45:21;0.00;0.00;0.62;0.00;0.00;0.62;3.87;3.40;;;24.70;26.10;;;;;;2267409;61;20806;-68
2022/11/15 00:48:26;0.00;0.00;0.62;0.00;0.00;0.62;4.60;4.20;;;24.70;25.60;;;;;;2268024;61;20800;-66
2022/11/15 00:51:30;0.00;0.00;0.62;0.00;0.00;0.62;4.20;3.73;;;24.70;25.50;;;;;;2267586;61;20421;-70
2022/11/15 00:54:34;0.00;0.00;0.62;0.00;0.00;0.62;4.03;3.23;;;24.70;25.50;;;;;;2268081;61;20781;-69
2022/11/15 00:57:37;0.00;0.00;0.62;0.00;0.00;0.62;3.93;3.53;;;24.60;25.40;;;;;;2268192;61;20402;-69
2022/11/15 01:00:41;0.00;0.00;0.62;0.00;0.00;0.62;4.97;4.37;;;24.60;25.40;;;;;;2267555;61;20359;-67
2022/11/15 01:03:46;0.00;0.00;0.62;0.00;0.00;0.62;5.00;4.07;;;24.60;25.40;;;;;;2268164;61;20402;-68
2022/11/15 01:06:49;0.00;0.00;0.62;0.00;0.00;0.62;4.23;3.70;;;24.60;25.40;;;;;;2267642;61;20405;-69
2022/11/15 01:09:53;0.00;0.00;0.62;0.00;0.00;0.62;4.97;4.10;;;24.60;25.90;;;;;;2268082;61;20417;-69
2022/11/15 01:12:57;0.00;0.00;0.62;0.00;0.00;0.62;5.10;4.33;;;24.60;25.40;;;;;;2268137;61;20924;-69
2022/11/15 01:16:08;0.00;0.00;0.62;0.00;0.00;0.62;4.03;3.53;;;24.60;25.40;;;;;;2267467;61;20359;-66
2022/11/15 01:19:12;0.00;0.00;0.62;0.00;0.00;0.62;4.70;4.30;;;24.50;25.30;;;;;;2268002;61;20351;-69
2022/11/15 01:22:16;0.00;0.00;0.62;0.00;0.00;0.62;4.17;3.73;;;24.50;25.30;;;;;;2266756;61;20406;-67
2022/11/15 01:25:20;0.00;0.00;0.62;0.00;0.00;0.62;4.20;3.80;;;24.50;25.30;;;;;;2268104;61;20366;-70
2022/11/15 01:28:23;0.00;0.00;0.62;0.00;0.00;0.62;4.77;3.93;;;24.40;25.20;;;;;;2267810;61;20374;-68
2022/11/15 01:31:26;0.00;0.00;0.62;0.00;0.00;0.62;4.40;3.70;;;24.40;25.20;;;;;;2267545;61;20405;-67
2022/11/15 01:34:31;0.00;0.00;0.62;0.00;0.00;0.62;4.20;3.80;;;24.40;25.80;;;;;;2268174;61;20501;-68
2022/11/15 01:37:34;0.00;0.00;0.62;0.00;0.00;0.62;4.20;3.60;;;24.40;25.30;;;;;;2267723;61;20359;-66
2022/11/15 01:40:38;0.00;0.00;0.62;0.00;0.00;0.62;4.67;3.70;;;24.30;25.30;;;;;;2267948;61;20787;-68
2022/11/15 01:43:41;0.00;0.00;0.62;0.00;0.00;0.62;3.80;3.50;;;24.30;25.80;;;;;;2267754;61;20375;-69
2022/11/15 01:46:47;0.00;0.00;0.62;0.00;0.00;0.62;4.37;3.40;;;24.30;25.40;;;;;;2267998;61;20486;-69
2022/11/15 01:49:58;0.00;0.00;0.62;0.00;0.00;0.62;5.10;4.40;;;24.30;25.90;;;;;;2268032;61;20413;-68
2022/11/15 01:53:02;0.00;0.00;0.62;0.00;0.00;0.62;4.27;3.43;;;24.30;25.40;;;;;;2267531;61;20359;-67
2022/11/15 01:56:13;0.00;0.00;0.62;0.00;0.00;0.62;3.77;3.47;;;24.20;25.40;;;;;;2267996;61;20355;-69
2022/11/15 01:59:19;0.00;0.00;0.62;0.00;0.00;0.62;3.60;3.30;;;24.20;25.40;;;;;;2267152;61;20493;-70
2022/11/15 02:02:23;0.00;0.00;0.62;0.00;0.00;0.62;3.27;2.97;;;24.20;25.40;;;;;;2267778;61;20777;-68
2022/11/15 02:05:30;0.00;0.00;0.62;0.00;0.00;0.62;3.77;3.43;;;24.20;25.40;;;;;;2267628;61;20351;-68
2022/11/15 02:08:33;0.00;0.00;0.62;0.00;0.00;0.62;4.33;3.33;;;24.20;25.50;;;;;;2267685;61;20790;-68
2022/11/15 02:11:37;0.00;0.00;0.62;0.00;0.00;0.62;4.07;3.67;;;24.20;25.50;;;;;;2268168;61;20813;-66
2022/11/15 02:14:42;0.00;0.00;0.62;0.00;0.00;0.62;3.90;3.30;;;24.20;25.50;;;;;;2268063;61;20410;-68
2022/11/15 02:18:05;0.00;0.00;0.62;0.00;0.00;0.62;3.50;3.10;;;24.20;25.50;;;;;;2268836;61;20447;-68
2022/11/15 02:21:28;0.00;0.00;0.62;0.00;0.00;0.62;4.03;3.63;;;24.10;25.40;;;;;;2267817;61;20406;-67
2022/11/15 02:25:07;0.00;0.00;0.62;0.00;0.00;0.62;4.20;3.60;;;24.10;25.50;;;;;;2268769;61;20828;-68
2022/11/15 02:28:49;0.00;0.00;0.62;0.00;0.00;0.62;3.80;3.10;;;24.10;25.50;;;;;;2268288;61;20487;-69
2022/11/15 02:32:04;0.00;0.00;0.62;0.00;0.00;0.62;3.70;3.27;;;24.10;25.50;;;;;;2268516;61;20439;-68
2022/11/15 02:35:16;0.00;0.00;0.62;0.00;0.00;0.62;3.97;3.00;;;24.10;25.50;;;;;;2268099;61;20930;-68
2022/11/15 02:38:29;0.00;0.00;0.62;0.00;0.00;0.62;5.10;3.60;;;24.10;25.60;;;;;;2268378;61;20885;-70
2022/11/15 02:41:41;0.00;0.00;0.62;0.00;0.00;0.62;4.33;3.90;;;24.10;25.60;;;;;;2268505;61;20371;-68
2022/11/15 02:44:46;0.00;0.00;0.62;0.00;0.00;0.62;3.97;3.23;;;24.00;26.00;;;;;;2267981;61;20371;-69
2022/11/15 02:47:56;0.00;0.00;0.62;0.00;0.00;0.62;4.33;3.93;;;24.00;25.50;;;;;;2268568;61;20379;-69
2022/11/15 02:51:01;0.00;0.00;0.62;0.00;0.00;0.62;3.73;3.30;;;24.00;25.50;;;;;;2267443;61;20406;-67
2022/11/15 02:54:05;0.00;0.00;0.62;0.00;0.00;0.62;5.20;3.90;;;24.00;25.50;;;;;;2268576;61;20460;-69
2022/11/15 02:57:16;0.00;0.00;0.62;0.00;0.00;0.62;4.70;4.03;;;24.00;25.50;;;;;;2268046;61;20769;-67
2022/11/15 03:00:20;0.00;0.00;0.62;0.00;0.00;0.62;4.30;3.90;;;23.90;25.60;;;;;;2268412;61;20404;-67
2022/11/15 03:03:52;0.00;0.00;0.62;0.00;0.00;0.62;4.73;4.17;;;23.90;25.60;;;;;;2268464;61;20786;-67
2022/11/15 03:07:03;0.00;0.00;0.62;0.00;0.00;0.62;4.03;3.63;;;23.80;25.60;;;;;;2267993;61;20370;-67
2022/11/15 03:10:14;0.00;0.00;0.62;0.00;0.00;0.62;4.10;3.63;;;23.80;25.60;;;;;;2268374;61;20360;-67
2022/11/15 03:13:27;0.00;0.00;0.62;0.00;0.00;0.62;4.73;3.93;;;23.80;25.70;;;;;;2267650;61;20413;-67
2022/11/15 03:16:37;0.00;0.00;0.62;0.00;0.00;0.62;4.33;3.87;;;23.70;26.30;;;;;;2268488;61;20398;-67
2022/11/15 03:19:46;0.00;0.00;0.62;0.00;0.00;0.62;3.70;3.37;;;23.70;25.90;;;;;;2268250;61;20429;-67
2022/11/15 03:22:52;0.00;0.00;0.62;0.00;0.00;0.62;3.83;3.40;;;23.60;25.90;;;;;;2268218;61;20885;-67
2022/11/15 03:25:58;0.00;0.00;0.62;0.00;0.00;0.62;3.83;3.40;;;23.60;25.90;;;;;;2268674;61;20359;-67
2022/11/15 03:29:07;0.00;0.00;0.62;0.00;0.00;0.62;3.90;3.37;;;23.60;25.90;;;;;;2267932;61;20781;-66
2022/11/15 03:32:15;0.00;0.00;0.62;0.00;0.00;0.62;5.23;3.60;;;23.50;25.90;;;;;;2268394;61;20355;-66
2022/11/15 03:35:24;0.00;0.00;0.62;0.00;0.00;0.62;4.67;4.17;;;23.50;26.00;;;;;;2267472;61;20355;-67
2022/11/15 03:38:31;0.00;0.00;0.62;0.00;0.00;0.62;3.67;3.27;;;23.50;26.00;;;;;;2268390;61;20495;-68
2022/11/15 03:41:41;0.00;0.00;0.62;0.00;0.00;0.62;3.87;3.47;;;23.50;26.10;;;;;;2267915;61;20363;-67
2022/11/15 03:44:52;0.00;0.00;0.62;0.00;0.00;0.62;4.27;3.30;;;23.40;26.10;;;;;;2268195;61;20379;-66
2022/11/15 03:48:02;0.00;0.00;0.62;0.00;0.00;0.62;4.73;3.43;;;23.40;26.10;;;;;;2268477;61;20383;-68
2022/11/15 03:51:09;0.00;0.00;0.62;0.00;0.00;0.62;3.57;3.27;;;23.40;26.20;;;;;;2267486;61;20412;-67
2022/11/15 03:54:13;0.00;0.00;0.62;0.00;0.00;0.62;4.00;3.47;;;23.40;26.20;;;;;;2268311;61;20383;-67
2022/11/15 03:57:17;0.00;0.00;0.62;0.00;0.00;0.62;5.20;4.23;;;23.40;26.40;;;;;;2267584;61;20764;-68
2022/11/15 04:00:21;0.00;0.00;0.62;0.00;0.00;0.62;5.17;4.20;;;23.40;26.50;;;;;;2268370;61;20895;-67
2022/11/15 04:03:24;0.00;0.00;0.62;0.00;0.00;0.62;4.00;3.30;;;23.40;26.50;;;;;;2268041;61;20874;-67
2022/11/15 04:06:29;0.00;0.00;0.62;0.00;0.00;0.62;3.90;3.60;;;23.30;26.50;;;;;;2267765;61;20359;-66
2022/11/15 04:09:32;0.00;0.00;0.62;0.00;0.00;0.62;3.80;3.33;;;23.30;26.50;;;;;;2268317;61;20418;-66
2022/11/15 04:12:39;0.00;0.00;0.62;0.00;0.00;0.62;4.37;3.53;;;23.30;26.50;;;;;;2267421;61;20359;-68
2022/11/15 04:15:43;0.00;0.00;0.62;0.00;0.00;0.62;4.53;3.23;;;23.20;26.60;;;;;;2268481;61;20359;-66
2022/11/15 04:24:11;0.00;0.00;0.62;0.00;0.00;0.62;4.57;3.17;;;23.20;26.60;;;;;;2267903;61;20351;-67
2022/11/15 04:25:33;0.00;0.00;0.62;0.00;0.00;0.62;3.37;3.07;;;23.20;26.70;;;;;;2267772;61;20817;-67
2022/11/15 04:32:01;0.00;0.00;0.62;0.00;0.00;0.62;3.60;3.27;;;23.10;26.80;;;;;;2265660;61;20367;-67
2022/11/15 04:35:05;0.00;0.00;0.62;0.00;0.00;0.62;3.57;3.13;;;23.10;26.80;;;;;;2267318;61;20476;-67
2022/11/15 04:38:11;0.00;0.00;0.62;0.00;0.00;0.62;6.27;3.40;;;23.10;26.90;;;;;;2268067;61;20475;-66
2022/11/15 04:41:14;0.00;0.00;0.62;0.00;0.00;0.62;4.47;4.07;;;23.10;27.00;;;;;;2267678;61;20459;-67
2022/11/15 04:44:18;0.00;0.00;0.62;0.00;0.00;0.62;6.40;3.40;;;23.10;27.00;;;;;;2268094;61;20387;-66
2022/11/15 04:47:21;0.00;0.00;0.62;0.00;0.00;0.62;4.47;3.20;;;23.00;27.00;;;;;;2268010;61;20761;-67
2022/11/15 04:50:25;0.00;0.00;0.62;0.00;0.00;0.62;3.80;3.40;;;23.00;27.10;;;;;;2267331;61;20766;-67
2022/11/15 04:53:30;0.00;0.00;0.62;0.00;0.00;0.62;5.40;3.10;;;23.00;27.70;;;;;;2268151;61;20461;-67
2022/11/15 04:56:34;0.00;0.00;0.62;0.00;0.00;0.62;3.37;3.07;;;22.90;27.20;;;;;;2267562;61;20369;-68
2022/11/15 04:59:37;0.00;0.00;0.62;0.00;0.00;0.62;4.47;3.03;;;22.90;27.30;;;;;;2268314;61;20425;-67
2022/11/15 05:06:03;0.00;0.00;0.62;0.00;0.00;0.62;4.33;3.07;;;22.90;27.30;;;;;;2267816;61;20400;-69
2022/11/15 05:09:09;0.00;0.00;0.62;0.00;0.00;0.62;3.43;3.10;;;22.80;27.30;;;;;;2268049;61;20910;-66
2022/11/15 05:12:12;0.00;0.00;0.62;0.00;0.00;0.62;3.90;2.97;;;22.80;27.40;;;;;;2267413;61;20386;-67
2022/11/15 05:15:16;0.00;0.00;0.62;0.00;0.00;0.62;3.27;2.60;;;22.80;27.40;;;;;;2268390;61;20370;-67
2022/11/15 05:18:20;0.00;0.00;0.62;0.00;0.00;0.62;2.97;2.67;;;22.80;27.40;;;;;;2267785;61;20355;-69
2022/11/15 05:21:23;0.00;0.00;0.62;0.00;0.00;0.62;3.40;3.10;;;22.80;27.80;;;;;;2267870;61;20905;-66
2022/11/15 05:24:28;0.00;0.00;0.62;0.00;0.00;0.62;3.93;3.30;;;22.80;27.30;;;;;;2267998;61;20783;-67
2022/11/15 05:27:32;0.00;0.00;0.62;0.00;0.00;0.62;3.20;2.60;;;22.80;27.20;;;;;;2267732;61;20359;-67
2022/11/15 05:30:35;0.00;0.00;0.62;0.00;0.00;0.62;2.93;2.63;;;22.80;27.70;;;;;;2268034;61;20363;-67
2022/11/15 05:33:40;0.00;0.00;0.62;0.00;0.00;0.62;3.40;2.47;;;22.80;27.10;;;;;;2267379;61;20393;-66
2022/11/15 05:36:45;0.00;0.00;0.62;0.00;0.00;0.62;4.53;2.63;;;22.80;27.10;;;;;;2267935;61;20444;-66
2022/11/15 05:39:50;0.00;0.00;0.62;0.00;0.00;0.62;7.00;3.10;;;22.80;27.00;;;;;;2267831;61;20392;-68
2022/11/15 05:42:54;0.00;0.00;0.62;0.00;0.00;0.62;3.50;3.03;;;22.90;27.10;;;;;;2267604;61;20362;-66
2022/11/15 05:45:59;0.00;0.00;0.62;0.00;0.00;0.62;4.07;2.90;;;22.90;27.00;;;;;;2268070;61;20994;-66
2022/11/15 05:49:07;0.00;0.00;0.62;0.00;0.00;0.62;4.17;2.70;;;22.90;27.00;;;;;;2267112;61;20382;-68
2022/11/15 05:52:13;0.00;0.00;0.62;0.00;0.00;0.62;3.13;2.60;;;22.90;27.00;;;;;;2501032;53;20364;-67
2022/11/15 05:55:18;0.00;0.00;0.62;0.00;0.00;0.62;3.57;2.73;;;22.90;26.90;;;;;;2263557;61;20375;-67
2022/11/15 05:58:22;0.00;0.00;0.62;0.00;0.00;0.62;2.90;2.20;;;23.00;27.00;;;;;;2263795;61;20360;-67
2022/11/15 06:01:27;0.00;0.00;0.62;0.00;0.00;0.62;3.43;3.13;;;23.00;27.00;;;;;;2263771;61;20376;-67
2022/11/15 06:04:30;0.00;0.00;0.62;0.00;0.00;0.62;2.77;2.20;;;23.00;27.00;;;;;;2263334;61;20463;-67
2022/11/15 06:07:34;0.00;0.00;0.62;0.00;0.00;0.62;4.20;2.80;;;23.00;26.90;;;;;;2263812;61;20840;-68
2022/11/15 06:10:39;0.00;0.00;0.62;0.00;0.00;0.62;3.20;2.57;;;23.00;26.90;;;;;;2263368;61;20452;-66
2022/11/15 06:13:45;0.00;0.00;0.62;0.00;0.00;0.62;3.10;2.80;;;23.00;27.00;;;;;;2263987;61;20821;-65
2022/11/15 06:16:49;0.00;0.00;0.62;0.00;0.00;0.62;3.30;2.80;;;23.10;27.00;;;;;;2263606;61;20356;-66
2022/11/15 06:19:52;0.00;0.00;0.62;0.00;0.00;0.62;3.43;2.60;;;23.10;27.00;;;;;;2263452;61;20391;-64
2022/11/15 06:23:00;0.00;0.00;0.62;0.00;0.00;0.62;4.67;2.83;;;23.10;27.00;;;;;;2263950;61;20364;-67
2022/11/15 06:26:05;0.00;0.00;0.62;0.00;0.00;0.62;3.13;2.63;;;23.00;26.90;;;;;;2263041;61;20387;-67
2022/11/15 06:29:09;0.00;0.00;0.62;0.00;0.00;0.62;2.93;2.43;;;23.10;27.00;;;;;;2264029;61;20383;-67
2022/11/15 06:32:12;0.00;0.00;0.62;0.00;0.00;0.62;3.53;2.70;;;23.00;26.90;;;;;;2263424;61;20352;-68
2022/11/15 06:35:16;0.00;0.00;0.62;0.00;0.00;0.62;3.43;2.60;;;23.10;27.00;;;;;;2263643;61;20375;-68
2022/11/15 06:38:19;0.00;0.00;0.62;0.00;0.00;0.62;3.90;3.07;;;23.10;27.00;;;;;;2263798;61;20759;-65
2022/11/15 06:41:24;0.00;0.00;0.62;0.00;0.00;0.62;3.57;3.17;;;23.10;27.10;;;;;;2262985;61;20839;-66
2022/11/15 06:44:27;0.00;0.00;0.62;0.00;0.00;0.62;5.50;3.00;;;23.10;27.30;;;;;;2263798;61;20429;-68
2022/11/15 06:47:31;0.00;0.00;0.62;0.00;0.00;0.62;4.50;3.80;;;23.00;27.30;;;;;;2262889;61;20364;-66
2022/11/15 06:50:34;0.00;0.00;0.62;0.00;0.00;0.62;5.83;4.53;;;23.00;27.50;;;;;;2265629;61;20804;-67
2022/11/15 06:53:38;0.00;0.00;0.62;0.00;0.00;0.62;5.17;3.80;;;22.90;27.60;;;;;;2267403;61;20424;-69
2022/11/15 06:56:43;0.00;0.00;0.62;0.00;0.00;0.62;7.87;3.57;;;22.80;27.60;;;;;;2267328;61;20358;-66
2022/11/15 06:59:47;0.00;0.00;0.62;0.00;0.00;0.62;4.67;4.00;;;22.70;27.70;;;;;;2268108;61;20397;-66
2022/11/15 07:02:50;0.00;0.00;0.62;0.00;0.00;0.62;5.30;4.10;;;22.70;27.80;;;;;;2267650;61;20407;-69
2022/11/15 07:05:56;0.00;0.00;0.62;0.00;0.00;0.62;8.90;4.47;;;22.60;28.00;;;;;;2268441;61;20362;-65
2022/11/15 07:09:02;0.00;0.00;0.62;0.00;0.00;0.62;5.70;3.70;;;22.50;28.00;;;;;;2267891;61;20797;-67
2022/11/15 07:12:07;0.00;0.00;0.62;0.00;0.00;0.62;7.57;5.17;;;22.40;28.20;;;;;;2268158;61;20354;-67
2022/11/15 07:15:11;0.00;0.00;0.62;0.00;0.00;0.62;4.00;3.60;;;22.40;28.30;;;;;;2268366;61;20417;-67
2022/11/15 07:18:15;0.00;0.00;0.62;0.00;0.00;0.62;4.50;3.40;;;22.40;28.80;;;;;;2267934;61;20354;-64
2022/11/15 07:21:18;0.00;0.00;0.62;0.00;0.00;0.62;5.60;3.93;;;22.40;28.30;;;;;;2268174;61;20413;-67
2022/11/15 07:24:22;0.00;0.00;0.62;0.00;0.00;0.62;3.93;3.30;;;22.30;28.70;;;;;;2267406;61;20826;-67
2022/11/15 07:27:27;0.00;0.00;0.62;0.00;0.00;0.62;3.57;2.90;;;22.40;28.10;;;;;;2268484;61;20339;-67
2022/11/15 07:30:30;0.00;0.00;0.62;0.00;0.00;0.62;3.50;2.77;;;22.40;28.00;;;;;;2267834;61;20395;-68
2022/11/15 07:33:35;0.00;0.00;0.62;0.00;0.00;0.62;3.73;2.50;;;22.40;28.00;;;;;;2267896;61;20375;-67
2022/11/15 07:36:38;0.00;0.00;0.62;0.00;0.00;0.62;3.10;2.80;;;22.50;27.90;;;;;;2268525;61;20354;-67
2022/11/15 07:39:42;0.00;0.00;0.62;0.00;0.00;0.62;3.60;2.60;;;22.50;27.90;;;;;;2267620;61;20427;-67
2022/11/15 07:42:52;0.00;0.00;0.62;0.00;0.00;0.62;4.17;3.17;;;22.60;28.40;;;;;;2268368;61;20382;-67
2022/11/15 07:45:57;0.00;0.00;0.62;0.00;0.00;0.62;5.20;2.90;;;22.60;27.80;;;;;;2267996;61;20367;-67
2022/11/15 07:49:00;0.00;0.00;0.62;0.00;0.00;0.62;3.43;2.50;;;22.60;27.80;;;;;;2268086;61;20432;-67
2022/11/15 07:52:04;0.00;0.00;0.62;0.00;0.00;0.62;2.97;2.27;;;22.60;27.80;;;;;;2501293;53;20348;-66
2022/11/15 07:55:11;0.00;0.00;0.62;0.00;0.00;0.62;2.70;2.50;;;22.70;27.80;;;;;;2263784;61;20384;-67
2022/11/15 07:58:16;0.00;0.00;0.62;0.00;0.00;0.62;3.63;2.67;;;22.70;27.80;;;;;;2264195;61;20356;-68
2022/11/15 08:01:19;0.00;0.00;0.62;0.00;0.00;0.62;3.73;2.30;;;22.80;27.80;;;;;;2263668;61;20368;-66
2022/11/15 08:04:23;0.00;0.00;0.62;0.00;0.00;0.62;2.90;2.27;;;22.80;27.80;;;;;;2264079;61;20379;-66
2022/11/15 08:07:30;0.00;0.00;0.62;0.00;0.00;0.62;3.57;2.77;;;22.90;27.80;;;;;;2263958;61;20351;-67
2022/11/15 08:10:34;0.00;0.00;0.62;0.00;0.00;0.62;2.17;1.97;;;22.90;27.70;;;;;;2263356;61;20776;-68
2022/11/15 08:13:40;0.00;0.00;0.62;0.00;0.00;0.62;2.60;2.20;;;22.90;27.70;;;;;;2264258;61;20438;-65
2022/11/15 08:16:44;0.00;0.00;0.62;0.00;0.00;0.62;3.07;2.73;;;22.90;27.70;;;;;;2263021;61;20391;-67
2022/11/15 08:19:47;0.00;0.00;0.62;0.00;0.00;0.62;4.00;2.87;;;23.00;27.80;;;;;;2264373;61;20883;-70
2022/11/15 08:22:51;0.00;0.00;0.62;0.00;0.00;0.62;4.17;3.23;;;23.00;28.30;;;;;;2263817;61;20372;-67
2022/11/15 08:26:00;0.00;0.00;0.62;0.00;0.00;0.62;4.67;4.17;;;23.00;28.30;;;;;;2263966;61;20759;-68
2022/11/15 08:29:07;0.00;0.00;0.62;0.00;0.00;0.62;5.00;4.50;;;23.00;27.80;;;;;;2264302;61;20992;-69
2022/11/15 08:32:11;0.00;0.00;0.62;0.00;0.00;0.62;6.20;4.60;;;23.10;27.80;;;;;;2263394;61;20364;-67
2022/11/15 08:35:15;0.00;0.00;0.62;0.00;0.00;0.62;9.03;5.37;;;23.10;28.30;;;;;;2264302;61;20457;-70
2022/11/15 08:38:18;0.00;0.00;0.62;0.00;0.00;0.62;7.90;6.43;;;23.10;27.80;;;;;;2263483;61;20440;-69
2022/11/15 08:41:27;0.00;0.00;0.62;0.00;0.00;0.62;8.07;6.57;;;23.20;27.80;;;;;;2263995;61;20360;-68
2022/11/15 08:44:32;0.00;0.00;0.62;0.00;0.00;0.62;7.73;6.87;;;23.20;27.80;;;;;;2264170;61;20813;-67
2022/11/15 08:47:36;0.00;0.00;0.62;0.00;0.00;0.62;9.43;7.50;;;23.30;27.90;;;;;;2263772;61;20403;-69
2022/11/15 08:50:39;0.00;0.00;0.62;0.00;0.00;0.62;7.80;6.97;;;23.30;27.90;;;;;;2266248;61;20433;-69
2022/11/15 08:53:43;0.00;0.00;0.62;0.00;0.00;0.62;7.50;6.60;;;23.30;27.80;;;;;;2267442;61;20395;-70
2022/11/15 08:56:46;0.00;0.00;0.62;0.00;0.00;0.62;8.20;6.77;;;23.40;27.90;;;;;;2268281;61;20433;-67
2022/11/15 08:59:51;0.00;0.00;0.62;0.00;0.00;0.62;9.00;6.40;;;23.40;27.90;;;;;;2267874;61;20871;-66
2022/11/15 09:02:54;0.00;0.00;0.62;0.00;0.00;0.62;7.97;6.30;;;23.40;27.90;;;;;;2267887;61;20359;-65
2022/11/15 09:06:00;0.00;0.00;0.62;0.00;0.00;0.62;10.73;7.33;;;23.50;27.90;;;;;;2268254;61;20404;-66
2022/11/15 09:09:03;0.00;0.00;0.62;0.00;0.00;0.62;8.37;6.47;;;23.50;27.90;;;;;;2267477;61;20366;-65
2022/11/15 09:12:08;0.00;0.00;0.62;0.00;0.00;0.62;7.50;5.63;;;23.60;28.00;;;;;;2268173;61;20767;-66
2022/11/15 09:15:13;0.00;0.00;0.62;0.00;0.00;0.62;6.30;5.50;;;23.60;27.90;;;;;;2267530;61;20828;-66
2022/11/15 09:18:17;0.00;0.00;0.62;0.00;0.00;0.62;7.50;6.30;;;23.60;27.90;;;;;;2268266;61;20388;-68
2022/11/15 09:21:20;0.00;0.00;0.62;0.00;0.00;0.62;6.03;5.43;;;23.70;27.90;;;;;;2267532;61;20371;-68
2022/11/15 09:24:24;0.00;0.00;0.62;0.00;0.00;0.62;6.53;5.33;;;23.70;27.90;;;;;;2267488;61;20414;-67
2022/11/15 09:27:28;0.00;0.00;0.62;0.00;0.00;0.62;7.10;5.67;;;23.80;28.00;;;;;;2267949;61;20896;-69
2022/11/15 09:30:32;0.00;0.00;0.62;0.00;0.00;0.62;7.27;5.77;;;23.80;27.90;;;;;;2267075;61;20921;-68
2022/11/15 09:33:36;0.00;0.00;0.62;0.00;0.00;0.62;5.80;5.20;;;23.80;27.90;;;;;;2268099;61;20433;-70
2022/11/15 09:36:40;0.00;0.00;0.62;0.00;0.00;0.62;6.10;5.40;;;23.90;28.40;;;;;;2267817;61;20759;-69
2022/11/15 09:39:43;0.00;0.00;0.62;0.00;0.00;0.62;6.77;5.50;;;23.90;27.80;;;;;;2267492;61;20351;-70
2022/11/15 09:43:23;0.00;0.00;0.62;0.00;0.00;0.62;6.63;5.10;;;24.00;27.90;;;;;;2267797;61;20943;-69
2022/11/15 09:46:43;0.00;0.00;0.62;0.00;0.00;0.62;6.43;5.70;;;24.00;27.80;;;;;;2267287;61;20362;-67
2022/11/15 09:49:51;0.00;0.00;0.62;0.00;0.00;0.62;7.30;5.80;;;24.00;27.80;;;;;;2268097;61;20375;-69
2022/11/15 09:52:45;0.00;0.00;0.62;0.00;0.00;0.62;7.97;6.17;;;24.10;27.80;;;;;;2266986;61;20371;-69
2022/11/15 09:55:40;0.00;0.00;0.62;0.00;0.00;0.62;6.90;5.30;;;24.10;27.80;;;;;;2268082;61;20409;-70
2022/11/15 09:58:36;0.00;0.00;0.62;0.00;0.00;0.62;6.13;5.50;;;24.10;27.80;;;;;;2267721;61;20355;-69
2022/11/15 10:01:34;0.00;0.00;0.62;0.00;0.00;0.62;6.10;5.50;;;24.20;27.90;;;;;;2267037;61;20394;-68
2022/11/15 10:04:19;0.00;0.00;0.62;0.00;0.00;0.62;7.43;5.70;;;24.20;27.90;;;;;;2267955;61;20391;-68
2022/11/15 10:07:15;0.00;0.00;0.62;0.00;0.00;0.62;6.80;5.33;;;24.20;27.90;;;;;;2267662;61;20418;-68
2022/11/15 10:10:08;0.00;0.00;0.62;0.00;0.00;0.62;5.93;4.93;;;24.30;27.90;;;;;;2268068;61;20387;-68
2022/11/15 10:12:53;0.00;0.00;0.62;0.00;0.00;0.62;8.10;5.90;;;24.30;27.90;;;;;;2268102;61;20773;-66
2022/11/15 10:15:38;0.00;0.00;0.62;0.00;0.00;0.62;6.00;5.40;;;24.30;28.40;;;;;;2267149;61;20436;-69
2022/11/15 10:18:34;0.00;0.00;0.62;0.00;0.00;0.62;6.07;5.07;;;24.40;27.90;;;;;;2267487;61;20359;-69
2022/11/15 10:21:24;0.00;0.00;0.62;0.00;0.00;0.62;8.00;6.73;;;24.40;27.90;;;;;;2267755;61;20516;-69
2022/11/15 10:24:12;0.00;0.00;0.62;0.00;0.00;0.62;6.20;5.20;;;24.50;27.90;;;;;;2267703;61;20379;-70
2022/11/15 10:26:57;0.00;0.00;0.62;0.00;0.00;0.62;5.50;4.47;;;24.50;27.90;;;;;;2268128;61;20447;-70
2022/11/15 10:29:47;0.00;0.00;0.62;0.00;0.00;0.62;6.00;5.40;;;24.50;27.90;;;;;;2267483;61;20383;-66
2022/11/15 10:32:36;0.00;0.00;0.62;0.00;0.00;0.62;6.47;5.77;;;24.60;27.90;;;;;;2266725;61;20343;-70
2022/11/15 10:35:26;0.00;0.00;0.62;0.00;0.00;0.62;6.90;5.83;;;24.60;27.90;;;;;;2268431;61;20423;-68
2022/11/15 10:38:12;0.00;0.00;0.62;0.00;0.00;0.62;9.60;5.73;;;24.60;27.90;;;;;;2268012;61;20450;-68
2022/11/15 10:41:11;0.00;0.00;0.62;0.00;0.00;0.62;8.67;6.90;;;24.70;28.00;;;;;;2268785;61;20754;-71
2022/11/15 10:44:21;0.00;0.00;0.62;0.00;0.00;0.62;7.10;6.27;;;24.70;27.90;;;;;;2268147;61;20379;-69
2022/11/15 10:47:23;0.00;0.00;0.62;0.00;0.00;0.62;8.23;7.10;;;24.70;27.90;;;;;;2268638;61;20342;-66
2022/11/15 10:50:30;0.00;0.00;0.62;0.00;0.00;0.62;8.20;7.13;;;24.80;27.90;;;;;;2268251;61;20477;-69
2022/11/15 10:53:23;0.00;0.00;0.62;0.00;0.00;0.62;7.80;6.30;;;24.80;27.90;;;;;;2268259;61;20359;-72
2022/11/15 10:56:15;0.00;0.00;0.62;0.00;0.00;0.62;8.87;7.57;;;24.80;27.90;;;;;;2268673;61;20359;-68
2022/11/15 10:59:00;0.00;0.00;0.62;0.00;0.00;0.62;10.13;7.10;;;24.80;28.40;;;;;;2267444;61;20890;-70
2022/11/15 11:01:48;0.00;0.00;0.62;0.00;0.00;0.62;9.73;7.03;;;24.90;27.80;;;;;;2268451;61;20362;-65
2022/11/15 11:04:51;0.00;0.00;0.62;0.00;0.00;0.62;9.30;8.00;;;24.90;27.80;;;;;;2268483;61;20690;-67
2022/11/15 11:07:38;0.00;0.00;0.62;0.00;0.00;0.62;9.30;7.63;;;25.00;27.80;;;;;;2268255;61;20408;-67
2022/11/15 11:10:22;0.00;0.00;0.62;0.00;0.00;0.62;9.00;7.97;;;25.00;27.80;;;;;;2268549;61;20363;-67
2022/11/15 11:13:34;0.00;0.00;0.62;0.00;0.00;0.62;9.27;7.20;;;25.00;27.70;;;;;;2268490;61;20778;-66
2022/11/15 11:16:41;0.00;0.00;0.62;0.00;0.00;0.62;8.33;6.70;;;25.10;27.70;;;;;;2268296;61;21110;-69
2022/11/15 11:20:00;0.00;0.00;0.62;0.00;0.00;0.62;7.77;6.40;;;25.10;27.70;;;;;;2268267;61;20413;-68
2022/11/15 11:23:02;0.00;0.00;0.62;0.00;0.00;0.62;7.43;6.70;;;25.10;27.70;;;;;;2268042;61;20371;-66
2022/11/15 11:25:59;0.00;0.00;0.62;0.00;0.00;0.62;9.83;7.47;;;25.20;27.70;;;;;;2268602;61;20367;-68
2022/11/15 11:28:54;0.00;0.00;0.62;0.00;0.00;0.62;8.63;6.13;;;25.20;27.60;;;;;;2267634;61;20820;-69
2022/11/15 11:31:48;0.00;0.00;0.62;0.00;0.00;0.62;8.83;6.97;;;25.20;27.60;;;;;;2268375;61;20902;-69
2022/11/15 11:34:50;0.00;0.00;0.62;0.00;0.00;0.62;10.40;7.83;;;25.20;27.50;;;;;;2268197;61;20431;-68
2022/11/15 11:37:46;0.00;0.00;0.62;0.00;0.00;0.62;10.23;8.20;;;25.30;27.50;;;;;;2267849;61;20405;-69
2022/11/15 11:40:39;0.00;0.00;0.62;0.00;0.00;0.62;9.00;8.10;;;25.30;27.40;;;;;;2268380;61;20413;-68
2022/11/15 11:43:32;0.00;0.00;0.62;0.00;0.00;0.62;9.90;7.80;;;25.30;27.40;;;;;;2267590;61;20374;-68
2022/11/15 11:46:52;0.00;0.00;0.62;0.00;0.00;0.62;11.70;8.87;;;25.30;27.30;;;;;;2268418;61;20352;-68
2022/11/15 11:49:45;0.00;0.00;0.62;0.00;0.00;0.62;12.10;8.10;;;25.40;27.30;;;;;;2267774;61;20374;-69
2022/11/15 11:52:38;0.00;0.00;0.62;0.00;0.00;0.62;10.87;8.50;;;25.40;27.30;;;;;;2267814;61;20413;-68
2022/11/15 11:55:28;0.00;0.00;0.62;0.00;0.00;0.62;10.23;8.47;;;25.40;27.30;;;;;;2268308;61;20397;-68
2022/11/15 11:58:20;0.00;0.00;0.62;0.00;0.00;0.62;13.27;8.10;;;25.40;27.30;;;;;;2267501;61;20540;-68
2022/11/15 12:01:17;0.00;0.00;0.62;0.00;0.00;0.62;12.60;8.40;;;25.40;27.20;;;;;;2268333;61;20371;-68
2022/11/15 12:04:09;0.00;0.00;0.62;0.00;0.00;0.62;10.50;8.37;;;25.40;27.20;;;;;;2268224;61;20459;-69
2022/11/15 12:06:59;0.00;0.00;0.62;0.00;0.00;0.62;9.87;8.87;;;25.40;27.20;;;;;;2267938;61;20405;-68
2022/11/15 12:09:51;0.00;0.00;0.62;0.00;0.00;0.62;10.90;9.17;;;25.40;27.10;;;;;;2268402;61;20423;-69
2022/11/15 12:12:44;0.00;0.00;0.62;0.00;0.00;0.62;10.10;8.00;;;25.40;27.10;;;;;;2267945;61;20394;-68
2022/11/15 12:15:42;0.00;0.00;0.62;0.00;0.00;0.62;9.33;7.57;;;25.40;27.10;;;;;;2268080;61;20918;-69